Uvalde Research's Hourly Summary for Friday, March 17, 2017
Hour Temp
(f)
RH
(%)
Solar Rad.
(MJ/m2)
Rainfall
(in)
Wind
(mph)
3/17/2017 12:00 AM 65 89 0 0 2.46
3/17/2017 1:00 AM 64 91 0 0 2.42
3/17/2017 2:00 AM 62 94 0 0 2.19
3/17/2017 3:00 AM 62 95 0 0 1.31
3/17/2017 4:00 AM 61 96 0 0 1.63
3/17/2017 5:00 AM 62 97 0 0 1.93
3/17/2017 6:00 AM 62 97 0 0 2.09
3/17/2017 7:00 AM 63 97 0 0 2.88
3/17/2017 8:00 AM 64 96 0.07 0 2.08
3/17/2017 9:00 AM 65 93 0.26 0 2.55
3/17/2017 10:00 AM 67 87 0.82 0 3.17
3/17/2017 11:00 AM 72 75 1.95 0 3.68
3/17/2017 12:00 PM 75 67 2.42 0 3.82
3/17/2017 1:00 PM 78 60 2.74 0 4.4
3/17/2017 2:00 PM 80 55 2.69 0 4.18
3/17/2017 3:00 PM 82 49 2.43 0 4.21
3/17/2017 4:00 PM 83 45 1.96 0 4.68
3/17/2017 5:00 PM 83 45 1.35 0 4.74
3/17/2017 6:00 PM 82 48 0.62 0 3.98
3/17/2017 7:00 PM 79 55 0.06 0 2.15
3/17/2017 8:00 PM 75 64 0 0 1.79
3/17/2017 9:00 PM 72 70 0 0 2.41
3/17/2017 10:00 PM 70 77 0 0 3.73
3/17/2017 11:00 PM 68 85 0 0 2.88
Data Summary 70 76 17.37 0.00 2.97